Scout — WCZ5277 — position and weather

sailwx.info

Track history (hours):
 
Tides and Currents Weather Stations Pressure Air Temp Water Temp Dewpoint Dewpoint Depression Visibility Wind Speed Wind Dir Waves Ship Positions

Scout

Owner: ERGON MARINE & INDUSTRIAL SUPPLY, VICKSBURG, MS. More information available from US FCC via Universal Licensing System.

Last reported at 2016-Jun-28 22:33 UTC. Time now 2016-Jun-29 02:02 UTC.
Position N 32°20' W 090°54'.

Length 14 m.

Type: Towing. MMSI: 367402890.

Date/timePositionNaut miles runAvg speedWind from/ knotsBaromVisibWave heightAir tempDewpointWater temp
2016-Jun-28 22:33N 32°20' W 090°54'3 2.6
2016-Jun-28 21:33N 32°22' W 090°53'0 0.0
2016-Jun-28 20:33N 32°22' W 090°53'1 0.7
2016-Jun-28 19:33N 32°23' W 090°53'1 0.7
2016-Jun-28 18:33N 32°22' W 090°53'1 0.8
2016-Jun-28 17:33N 32°22' W 090°52'1 1.5
2016-Jun-28 16:34N 32°23' W 090°54'0 0.5
2016-Jun-28 15:33N 32°23' W 090°53'0 0.2
2016-Jun-28 14:33N 32°23' W 090°53'1 0.5
2016-Jun-28 13:33N 32°23' W 090°54'0 0.1
2016-Jun-28 12:33N 32°23' W 090°54'4 3.5
2016-Jun-28 11:33N 32°20' W 090°54'0 0.1
2016-Jun-28 10:33N 32°20' W 090°54'0 0.0
2016-Jun-28 09:33N 32°20' W 090°54'0 0.0
2016-Jun-28 08:33N 32°20' W 090°54'0 0.0
2016-Jun-28 07:33N 32°20' W 090°54'0 0.0
2016-Jun-28 06:33N 32°20' W 090°54'0 0.0
2016-Jun-28 04:33N 32°20' W 090°54'0 0.0
2016-Jun-28 03:33N 32°20' W 090°54'3 2.6
2016-Jun-28 02:33N 32°22' W 090°53'2 1.6
2016-Jun-28 01:33N 32°23' W 090°54'2 1.7
2016-Jun-28 00:33N 32°21' W 090°53'4 3.9
2016-Jun-27 23:33N 32°18' W 090°55'0 0.0
2016-Jun-27 22:33N 32°18' W 090°55'5 5.4
2016-Jun-27 21:33N 32°23' W 090°53'2 1.8
2016-Jun-27 20:33N 32°21' W 090°53'2 1.8
2016-Jun-27 19:33N 32°23' W 090°53'0 0.3
2016-Jun-27 18:33N 32°23' W 090°53'0 0.2
2016-Jun-27 17:33N 32°23' W 090°53'1 1.1
2016-Jun-27 16:33N 32°22' W 090°53'0 0.0
2016-Jun-27 15:33N 32°22' W 090°53'4 4.2
2016-Jun-27 14:33N 32°18' W 090°55'2 2.3
2016-Jun-27 13:33N 32°20' W 090°54'3 3.1
2016-Jun-27 12:33N 32°23' W 090°53'3 0.2
2016-Jun-26 22:08N 32°20' W 090°54'1 1.6
2016-Jun-26 21:33N 32°21' W 090°54'0 0.0
2016-Jun-26 20:33N 32°20' W 090°54'0 0.0
2016-Jun-26 19:33N 32°20' W 090°54'1 1.2
2016-Jun-26 18:33N 32°22' W 090°53'2 1.8
2016-Jun-26 17:33N 32°23' W 090°54'0 0.1
2016-Jun-26 16:33N 32°23' W 090°54'1 0.6
2016-Jun-26 15:33N 32°23' W 090°53'3 3.2
2016-Jun-26 14:33N 32°20' W 090°54'1 1.1
2016-Jun-26 13:33N 32°19' W 090°54'1 1.1
2016-Jun-26 12:33N 32°18' W 090°55'3 3.1
2016-Jun-26 11:33N 32°21' W 090°53'1 1.2
2016-Jun-26 10:33N 32°20' W 090°54'0 0.0
2016-Jun-26 09:33N 32°20' W 090°54'0 0.0
2016-Jun-26 08:33N 32°20' W 090°54'0 0.0
2016-Jun-26 07:33N 32°20' W 090°54'0 0.0
2016-Jun-26 06:33N 32°20' W 090°54'0 0.0
2016-Jun-26 05:33N 32°20' W 090°54'0 0.0
2016-Jun-26 04:33N 32°20' W 090°54'0 0.0
2016-Jun-26 03:33N 32°20' W 090°54'0 0.0
2016-Jun-26 02:33N 32°20' W 090°54'0 0.0
2016-Jun-26 01:33N 32°20' W 090°54'0 0.0
2016-Jun-26 00:33N 32°20' W 090°54'0 0.0
2016-Jun-25 23:33N 32°20' W 090°54'0 0.0
2016-Jun-25 22:33N 32°20' W 090°54'0 0.0
2016-Jun-25 21:33N 32°20' W 090°54'0 0.0
2016-Jun-25 20:33N 32°20' W 090°54'0 0.0
2016-Jun-25 19:33N 32°20' W 090°54'0 0.0
2016-Jun-25 18:33N 32°20' W 090°54'0 0.0
2016-Jun-25 17:33N 32°20' W 090°54'0 0.0
2016-Jun-25 16:33N 32°20' W 090°54'0 0.0
2016-Jun-25 15:33N 32°20' W 090°54'0 0.0
2016-Jun-25 14:33N 32°20' W 090°54'0 0.0
2016-Jun-25 13:33N 32°20' W 090°54'0 0.0
2016-Jun-25 12:33N 32°20' W 090°54'0 0.0
2016-Jun-25 11:34N 32°20' W 090°54'0 0.0
2016-Jun-25 10:33N 32°20' W 090°54'0 0.0
2016-Jun-25 09:34N 32°20' W 090°54'0 0.0
2016-Jun-25 08:33N 32°20' W 090°54'0 0.0
2016-Jun-25 07:33N 32°20' W 090°54'0 0.0
2016-Jun-25 06:33N 32°20' W 090°54'1 0.9
2016-Jun-25 05:34N 32°20' W 090°54'1 0.1
2016-Jun-24 23:10N 32°20' W 090°54'3 4.6
2016-Jun-24 22:33N 32°22' W 090°53'1 0.9
2016-Jun-24 21:33N 32°23' W 090°53'1 0.6
2016-Jun-24 20:33N 32°23' W 090°53'0 0.4
2016-Jun-24 19:33N 32°23' W 090°53'1 1.4
2016-Jun-24 18:33N 32°22' W 090°53'1 0.9
2016-Jun-24 17:33N 32°23' W 090°53'1 0.6
2016-Jun-24 16:33N 32°22' W 090°53'1 1.0
2016-Jun-24 15:33N 32°23' W 090°54'1 0.6
2016-Jun-24 14:33N 32°23' W 090°53'1 1.1
2016-Jun-24 13:33N 32°22' W 090°53'3 3.2
2016-Jun-24 12:33N 32°21' W 090°56'1 0.9
2016-Jun-24 11:33N 32°21' W 090°55'2 0.1
2016-Jun-23 22:06N 32°20' W 090°54'2 4.1
2016-Jun-23 21:33N 32°22' W 090°53'2 2.1
2016-Jun-23 20:33N 32°20' W 090°54'1 0.6
2016-Jun-23 19:33N 32°19' W 090°54'1 1.3
2016-Jun-23 18:33N 32°20' W 090°54'1 1.1
2016-Jun-23 17:33N 32°19' W 090°54'2 1.5
2016-Jun-23 16:33N 32°18' W 090°55'0 0.0
2016-Jun-23 15:33N 32°18' W 090°55'0 0.1
2016-Jun-23 14:33N 32°18' W 090°55'0 0.4
2016-Jun-23 13:33N 32°18' W 090°55'2 2.2
2016-Jun-23 12:33N 32°20' W 090°54'0 0.3
2016-Jun-23 11:33N 32°20' W 090°54'  
2016-Jun-20 22:33N 32°22' W 090°53'1 1.3
2016-Jun-20 21:33N 32°20' W 090°54'2 2.4
2016-Jun-20 20:33N 32°21' W 090°56'0 0.1
2016-Jun-20 19:33N 32°21' W 090°56'0 0.0
2016-Jun-20 18:33N 32°21' W 090°56'0 0.0
2016-Jun-20 17:33N 32°21' W 090°56'2 0.1
2016-Jun-19 21:33N 32°21' W 090°54'2 2.0
2016-Jun-19 20:33N 32°23' W 090°54'1 0.7
2016-Jun-19 19:33N 32°23' W 090°53'0 0.2
2016-Jun-19 18:33N 32°23' W 090°53'0 0.0
2016-Jun-19 17:33N 32°23' W 090°53'1 0.6
2016-Jun-19 16:33N 32°23' W 090°54'1 0.5
2016-Jun-19 15:33N 32°23' W 090°53'2 1.8
2016-Jun-19 14:33N 32°21' W 090°53'2 1.6
2016-Jun-19 13:33N 32°23' W 090°53'3 3.4
2016-Jun-19 12:33N 32°20' W 090°54'0 0.2
2016-Jun-19 11:33N 32°20' W 090°54'0 0.0
2016-Jun-19 10:33N 32°20' W 090°54'0 0.0
2016-Jun-19 09:33N 32°20' W 090°54'0 0.0
2016-Jun-19 08:33N 32°20' W 090°54'0 0.0
2016-Jun-19 07:33N 32°20' W 090°54'0 0.0
2016-Jun-19 06:33N 32°20' W 090°54'0 0.0
2016-Jun-19 05:33N 32°20' W 090°54'0 0.0
2016-Jun-19 04:33N 32°20' W 090°54'0 0.0
2016-Jun-19 03:33N 32°20' W 090°54'0 0.0
2016-Jun-19 02:33N 32°20' W 090°54'0 0.0
2016-Jun-19 01:33N 32°20' W 090°54'0 0.0
2016-Jun-19 00:33N 32°20' W 090°54'0 0.0
2016-Jun-18 23:33N 32°20' W 090°54'0 0.0
2016-Jun-18 22:33N 32°20' W 090°54'  
Track history (hours):
 
Tides and Currents Weather Stations Pressure Air Temp Water Temp Dewpoint Dewpoint Depression Visibility Wind Speed Wind Dir Waves Ship Positions

Scout

Owner: ERGON MARINE & INDUSTRIAL SUPPLY, VICKSBURG, MS. More information available from US FCC via Universal Licensing System.

Last reported at 2016-Jun-28 22:33 UTC. Time now 2016-Jun-29 02:02 UTC.
Position N 32°20' W 090°54'.

Length 14 m.

Type: Towing. MMSI: 367402890.

Date/timePositionNaut miles runAvg speedWind from/ knotsBaromVisibWave heightAir tempDewpointWater temp
2016-Jun-28 22:33N 32°20' W 090°54'3 2.6
2016-Jun-28 21:33N 32°22' W 090°53'0 0.0
2016-Jun-28 20:33N 32°22' W 090°53'1 0.7
2016-Jun-28 19:33N 32°23' W 090°53'1 0.7
2016-Jun-28 18:33N 32°22' W 090°53'1 0.8
2016-Jun-28 17:33N 32°22' W 090°52'1 1.5
2016-Jun-28 16:34N 32°23' W 090°54'0 0.5
2016-Jun-28 15:33N 32°23' W 090°53'0 0.2
2016-Jun-28 14:33N 32°23' W 090°53'1 0.5
2016-Jun-28 13:33N 32°23' W 090°54'0 0.1
2016-Jun-28 12:33N 32°23' W 090°54'4 3.5
2016-Jun-28 11:33N 32°20' W 090°54'0 0.1
2016-Jun-28 10:33N 32°20' W 090°54'0 0.0
2016-Jun-28 09:33N 32°20' W 090°54'0 0.0
2016-Jun-28 08:33N 32°20' W 090°54'0 0.0
2016-Jun-28 07:33N 32°20' W 090°54'0 0.0
2016-Jun-28 06:33N 32°20' W 090°54'0 0.0
2016-Jun-28 04:33N 32°20' W 090°54'0 0.0
2016-Jun-28 03:33N 32°20' W 090°54'3 2.6
2016-Jun-28 02:33N 32°22' W 090°53'2 1.6
2016-Jun-28 01:33N 32°23' W 090°54'2 1.7
2016-Jun-28 00:33N 32°21' W 090°53'4 3.9
2016-Jun-27 23:33N 32°18' W 090°55'0 0.0
2016-Jun-27 22:33N 32°18' W 090°55'5 5.4
2016-Jun-27 21:33N 32°23' W 090°53'2 1.8
2016-Jun-27 20:33N 32°21' W 090°53'2 1.8
2016-Jun-27 19:33N 32°23' W 090°53'0 0.3
2016-Jun-27 18:33N 32°23' W 090°53'0 0.2
2016-Jun-27 17:33N 32°23' W 090°53'1 1.1
2016-Jun-27 16:33N 32°22' W 090°53'0 0.0
2016-Jun-27 15:33N 32°22' W 090°53'4 4.2
2016-Jun-27 14:33N 32°18' W 090°55'2 2.3
2016-Jun-27 13:33N 32°20' W 090°54'3 3.1
2016-Jun-27 12:33N 32°23' W 090°53'3 0.2
2016-Jun-26 22:08N 32°20' W 090°54'1 1.6
2016-Jun-26 21:33N 32°21' W 090°54'0 0.0
2016-Jun-26 20:33N 32°20' W 090°54'0 0.0
2016-Jun-26 19:33N 32°20' W 090°54'1 1.2
2016-Jun-26 18:33N 32°22' W 090°53'2 1.8
2016-Jun-26 17:33N 32°23' W 090°54'0 0.1
2016-Jun-26 16:33N 32°23' W 090°54'1 0.6
2016-Jun-26 15:33N 32°23' W 090°53'3 3.2
2016-Jun-26 14:33N 32°20' W 090°54'1 1.1
2016-Jun-26 13:33N 32°19' W 090°54'1 1.1
2016-Jun-26 12:33N 32°18' W 090°55'3 3.1
2016-Jun-26 11:33N 32°21' W 090°53'1 1.2
2016-Jun-26 10:33N 32°20' W 090°54'0 0.0
2016-Jun-26 09:33N 32°20' W 090°54'0 0.0
2016-Jun-26 08:33N 32°20' W 090°54'0 0.0
2016-Jun-26 07:33N 32°20' W 090°54'0 0.0
2016-Jun-26 06:33N 32°20' W 090°54'0 0.0
2016-Jun-26 05:33N 32°20' W 090°54'0 0.0
2016-Jun-26 04:33N 32°20' W 090°54'0 0.0
2016-Jun-26 03:33N 32°20' W 090°54'0 0.0
2016-Jun-26 02:33N 32°20' W 090°54'0 0.0
2016-Jun-26 01:33N 32°20' W 090°54'0 0.0
2016-Jun-26 00:33N 32°20' W 090°54'0 0.0
2016-Jun-25 23:33N 32°20' W 090°54'0 0.0
2016-Jun-25 22:33N 32°20' W 090°54'0 0.0
2016-Jun-25 21:33N 32°20' W 090°54'0 0.0
2016-Jun-25 20:33N 32°20' W 090°54'0 0.0
2016-Jun-25 19:33N 32°20' W 090°54'0 0.0
2016-Jun-25 18:33N 32°20' W 090°54'0 0.0
2016-Jun-25 17:33N 32°20' W 090°54'0 0.0
2016-Jun-25 16:33N 32°20' W 090°54'0 0.0
2016-Jun-25 15:33N 32°20' W 090°54'0 0.0
2016-Jun-25 14:33N 32°20' W 090°54'0 0.0
2016-Jun-25 13:33N 32°20' W 090°54'0 0.0
2016-Jun-25 12:33N 32°20' W 090°54'0 0.0
2016-Jun-25 11:34N 32°20' W 090°54'0 0.0
2016-Jun-25 10:33N 32°20' W 090°54'0 0.0
2016-Jun-25 09:34N 32°20' W 090°54'0 0.0
2016-Jun-25 08:33N 32°20' W 090°54'0 0.0
2016-Jun-25 07:33N 32°20' W 090°54'0 0.0
2016-Jun-25 06:33N 32°20' W 090°54'1 0.9
2016-Jun-25 05:34N 32°20' W 090°54'1 0.1
2016-Jun-24 23:10N 32°20' W 090°54'3 4.6
2016-Jun-24 22:33N 32°22' W 090°53'1 0.9
2016-Jun-24 21:33N 32°23' W 090°53'1 0.6
2016-Jun-24 20:33N 32°23' W 090°53'0 0.4
2016-Jun-24 19:33N 32°23' W 090°53'1 1.4
2016-Jun-24 18:33N 32°22' W 090°53'1 0.9
2016-Jun-24 17:33N 32°23' W 090°53'1 0.6
2016-Jun-24 16:33N 32°22' W 090°53'1 1.0
2016-Jun-24 15:33N 32°23' W 090°54'1 0.6
2016-Jun-24 14:33N 32°23' W 090°53'1 1.1
2016-Jun-24 13:33N 32°22' W 090°53'3 3.2
2016-Jun-24 12:33N 32°21' W 090°56'1 0.9
2016-Jun-24 11:33N 32°21' W 090°55'2 0.1
2016-Jun-23 22:06N 32°20' W 090°54'2 4.1
2016-Jun-23 21:33N 32°22' W 090°53'2 2.1
2016-Jun-23 20:33N 32°20' W 090°54'1 0.6
2016-Jun-23 19:33N 32°19' W 090°54'1 1.3
2016-Jun-23 18:33N 32°20' W 090°54'1 1.1
2016-Jun-23 17:33N 32°19' W 090°54'2 1.5
2016-Jun-23 16:33N 32°18' W 090°55'0 0.0
2016-Jun-23 15:33N 32°18' W 090°55'0 0.1
2016-Jun-23 14:33N 32°18' W 090°55'0 0.4
2016-Jun-23 13:33N 32°18' W 090°55'2 2.2
2016-Jun-23 12:33N 32°20' W 090°54'0 0.3
2016-Jun-23 11:33N 32°20' W 090°54'  
2016-Jun-20 22:33N 32°22' W 090°53'1 1.3
2016-Jun-20 21:33N 32°20' W 090°54'2 2.4
2016-Jun-20 20:33N 32°21' W 090°56'0 0.1
2016-Jun-20 19:33N 32°21' W 090°56'0 0.0
2016-Jun-20 18:33N 32°21' W 090°56'0 0.0
2016-Jun-20 17:33N 32°21' W 090°56'2 0.1
2016-Jun-19 21:33N 32°21' W 090°54'2 2.0
2016-Jun-19 20:33N 32°23' W 090°54'1 0.7
2016-Jun-19 19:33N 32°23' W 090°53'0 0.2
2016-Jun-19 18:33N 32°23' W 090°53'0 0.0
2016-Jun-19 17:33N 32°23' W 090°53'1 0.6
2016-Jun-19 16:33N 32°23' W 090°54'1 0.5
2016-Jun-19 15:33N 32°23' W 090°53'2 1.8
2016-Jun-19 14:33N 32°21' W 090°53'2 1.6
2016-Jun-19 13:33N 32°23' W 090°53'3 3.4
2016-Jun-19 12:33N 32°20' W 090°54'0 0.2
2016-Jun-19 11:33N 32°20' W 090°54'0 0.0
2016-Jun-19 10:33N 32°20' W 090°54'0 0.0
2016-Jun-19 09:33N 32°20' W 090°54'0 0.0
2016-Jun-19 08:33N 32°20' W 090°54'0 0.0
2016-Jun-19 07:33N 32°20' W 090°54'0 0.0
2016-Jun-19 06:33N 32°20' W 090°54'0 0.0
2016-Jun-19 05:33N 32°20' W 090°54'0 0.0
2016-Jun-19 04:33N 32°20' W 090°54'0 0.0
2016-Jun-19 03:33N 32°20' W 090°54'0 0.0
2016-Jun-19 02:33N 32°20' W 090°54'0 0.0
2016-Jun-19 01:33N 32°20' W 090°54'0 0.0
2016-Jun-19 00:33N 32°20' W 090°54'0 0.0
2016-Jun-18 23:33N 32°20' W 090°54'0 0.0
2016-Jun-18 22:33N 32°20' W 090°54'  

Dump ship's entire track history